Highlands Peak, California Weather observations

Data are for observation ending at time listed.
 Day   Time    Ave.   Ave.  Ave.  Vector   Max.   Stn.    Total    Solar   Ave.  
  of    of     Air    Rel.  Wind   Wind    Wind   Baro.  Precip.   Rad.    Soil  
Year   Day     Temp.  Hum.  Speed  Dir.    Gust   Pres.                    Temp. 
2014   (PST)    F      %     mph   deg.    mph     mb.     in.     W/m2     F   
------------------------------------------------------------------------------
 297    6:50   61.5    34    1.4   100      4.7   929.2    0.00      13    65.0
 297    7:00   60.8    40    5.1   154      6.0   929.3    0.00      16    64.7
 297    7:10   60.5    42    4.3   162      5.8   929.4    0.00      96    64.5
 297    7:20   62.2    40    3.8   172      7.5   929.5    0.00     179    64.6
 297    7:30   62.8    41    4.0   167      6.5   929.6    0.00     215    64.5
 297    7:40   63.5    39    3.6   123      5.3   929.6    0.00     253    64.5
 297    7:50   64.6    33    3.3    98      4.7   929.7    0.00     290    64.5
 297    8:00   66.3    31    1.1    87      4.1   929.7    0.00     326    64.5
 297    8:10   65.9    32    1.1   303      2.3   929.8    0.00     361    64.4
 297    8:20   67.3    29    2.1   121      4.5   929.8    0.00     395    64.4
 297    8:30   69.5    27    4.1   145      8.0   929.8    0.00     429    64.4
 297    8:40   71.8    25    4.0   145      7.8   929.8    0.00     461    64.5
 297    8:50   72.2    24    5.0   157      7.8   929.7    0.00     491    64.5
 297    9:00   72.4    22    6.9   148     11.3   929.7    0.00     521    64.5
 297    9:10   72.9    22    6.3   162     10.2   929.7    0.00     550    64.6
 297    9:20   72.6    25    5.1   175     10.4   929.7    0.00     576    64.7
 297    9:30   71.9    28    4.4   184      7.8   929.7    0.00     601    64.9
 297    9:40   72.3    27    4.2   178      9.5   929.7    0.00     624    65.0
 297    9:50   71.7    30    3.4   196      7.2   929.7    0.00     645    65.2
 297   10:00   69.9    33    4.0   189      7.3   929.7    0.00     665    65.4
 297   10:10   70.8    33    4.3   184      8.3   929.7    0.00     683    65.6
 297   10:20   71.5    32    5.4   171      9.1   929.6    0.00     700    65.8
 297   10:30   70.6    34    7.2   167     11.0   929.6    0.00     714    66.1
 297   10:40   70.0    38    5.7   183     10.4   929.6    0.00     727    66.4
 297   10:50   70.5    37    5.0   181     10.7   929.6    0.00     737    66.7
 297   11:00   69.5    38    7.3   171     12.0   929.6    0.00     746    67.1
 297   11:10   69.3    37    6.9   164     14.3   929.6    0.00     753    67.4
 297   11:20   69.3    37    7.1   168     11.3   929.6    0.00     758    67.7
 297   11:30   69.1    36    7.5   162     12.6   929.6    0.00     762    68.1
 297   11:40   69.5    35    8.1   154     13.8   929.5    0.00     764    68.4
 297   11:50   69.8    35    7.2   159     11.2   929.4    0.00     764    68.7
 297   12:00   70.1    33    6.2   162     11.8   929.3    0.00     762    69.0
 297   12:10   70.3    32    7.9   163     13.6   929.2    0.00     759    69.2
 297   12:20   69.8    30    8.9   163     15.1   929.1    0.00     755    69.7
 297   12:30   69.6    31    9.3   164     17.1   929.0    0.00     749    70.1
 297   12:40   69.7    31    9.3   164     15.8   929.0    0.00     746    70.4
 297   12:50   69.6    31    8.3   167     13.5   928.9    0.00     739    70.6
 297   13:00   69.4    32    8.7   161     15.1   928.8    0.00     719    70.9
 297   13:10   69.7    31    8.4   164     13.7   928.7    0.00     702    71.2
 297   13:20   69.5    30    9.0   167     13.4   928.7    0.00     684    71.6
 297   13:30   69.0    31    9.0   164     14.8   928.6    0.00     665    71.9
 297   13:40   69.4    30    9.2   167     14.0   928.6    0.00     645    72.2
 297   13:50   70.5    29    7.6   167     13.3   928.6    0.00     624    72.4
 297   14:00   69.4    31    7.6   165     12.0   928.5    0.00     602    72.7
 297   14:10   69.3    31    6.3   167     11.5   928.4    0.00     579    73.0
 297   14:20   68.4    34    7.6   166     12.3   928.4    0.00     555    73.2
 297   14:30   68.3    33    6.6   165     11.7   928.4    0.00     529    73.5
 297   14:40   67.9    33    8.0   162     16.2   928.4    0.00     500    73.7
 297   14:50   68.7    34    6.1   172     12.2   928.4    0.00     459    73.9
 297   15:00   69.2    41    3.7   184      9.1   928.4    0.00     441    74.1
 297   15:10   67.1    52    2.4   213      5.8   928.4    0.00     410    74.3
 297   15:20   66.8    53    1.5   216      3.7   928.3    0.00     378    74.5
 297   15:30   67.1    54    2.0   209      5.6   928.3    0.00     345    74.6
 297   15:40   66.0    53    2.7   186      7.5   928.3    0.00     312    74.9
 297   15:50   65.5    52    3.5   165      8.2   928.2    0.00     278    75.0
 297   16:00   65.2    56    2.7   180      5.5   928.1    0.00     244    75.1
 297   16:10   64.6    54    3.4   166      7.3   928.1    0.00     211    75.3
 297   16:20   63.5    48    4.8   161      7.5   928.1    0.00     180    75.4
 297   16:30   62.9    40    6.5   161      9.2   928.1    0.00     102    75.5
 297   16:40   62.1    38    7.3   151     10.4   928.0    0.00      43    75.5
 297   16:50   62.8    32    6.9   152     11.8   927.9    0.00      66    75.4
 297   17:00   62.3    37    5.0   170      7.5   927.9    0.00      50    75.4
 297   17:10   60.3    45    4.6   170      7.2   927.9    0.00      18    75.5
 297   17:20   58.5    49    7.5   160      9.8   927.9    0.00       5    75.3
 297   17:30   58.2    47    6.6   163      9.3   927.9    0.00       2    75.2
 297   17:40   58.2    47    5.9   171      8.4   927.9    0.00       1    75.1
 297   17:50   54.9    71    4.0   243      5.8   928.1    0.00       0    75.2
 297   18:00   51.8    90    1.3   105      4.3   928.4    0.00       0    75.1
 297   18:10   51.5    92    3.7    89      5.3   928.2    0.00       0    75.1
 297   18:20   51.1    90    3.0   124      5.9   928.2    0.00       0    75.0
 297   18:30   53.5    75    3.1   197      7.3   928.3    0.00       0    74.7
 297   18:40   52.3    85    1.3   219      2.3   928.4    0.00       0    74.6
 297   18:50   51.8    88    3.2   138      6.1   928.4    0.00       0    74.4
 297   19:00   52.8    81    7.6   170      8.7   928.4    0.00       0    73.7
 297   19:10   53.4    81    8.7   182      9.9   928.5    0.00       0    73.7
 297   19:20   53.9    78    6.8   193      9.6   928.7    0.00       0    73.6
 297   19:30   53.4    82    4.4   241      7.5   928.9    0.00       0    73.5
 297   19:40   52.6    88    1.5    42      2.6   929.1    0.00       0    73.4
 297   19:50   52.5    88    2.6    96      3.8   929.1    0.00       0    73.3
 297   20:00   52.7    84    1.4   130      3.0   929.1    0.00       0    73.2
 297   20:10   53.3    87    1.5   248      2.6   929.2    0.00       0    73.0
 297   20:20   53.0    91    2.2   139      3.6   929.2    0.00       0    72.7
 297   20:30   53.3    83    2.7   154      3.6   929.2    0.00       0    72.3
 297   20:40   53.9    80    2.9   206      4.5   929.3    0.00       0    72.2
 297   20:50   53.9    80    2.5   187      3.6   929.4    0.00       0    72.1
 297   21:00   53.7    80    3.5   157      4.4   929.4    0.00       0    71.9
 297   21:10   53.5    81    3.9   152      4.5   929.5    0.00       0    71.4
 297   21:20   53.2    82    2.1   178      2.6   929.5    0.00       0    71.3
 297   21:30   53.6    82    1.3   236      1.8   929.6    0.00       0    71.2
 297   21:40   53.6    82    0.8   229      2.8   929.7    0.00       0    71.0
 297   21:50   52.9    84    4.1   110      5.7   929.6    0.00       0    70.8
 297   22:00   52.8    85    2.8   189      5.4   929.7    0.00       0    70.6
 297   22:10   52.9    83    3.1   201      4.8   929.7    0.00       0    70.5
 297   22:20   52.6    84    5.6   154      6.6   929.7    0.00       0    69.9
 297   22:30   52.5    86    6.1   226      7.5   929.9    0.00       0    69.9
 297   22:40   53.2    85    6.3   235      8.3   930.1    0.00       0    69.8
 297   22:50   53.8    85    5.7   246      8.0   930.2    0.00       0    69.6
 297   23:00   54.4    83    2.8   233      4.5   930.3    0.00       0    69.5
 297   23:10   54.5    84    3.8   233      6.6   930.3    0.00       0    69.3
 297   23:20   54.6    84    6.0   244     10.5   930.4    0.00       0    69.2
 297   23:30   54.6    84    6.6   248     11.8   930.5    0.00       0    69.0
 297   23:40   54.6    83    4.5   162      6.7   930.3    0.00       0    68.8
 297   23:50   54.3    84    4.6   115      6.4   930.2    0.00       0    68.6
 298    0:00   54.9    81    3.3    80      7.2   930.2    0.00       0    68.6
 298    0:10   55.1    81    3.2   171      8.1   930.3    0.00       0    68.5
 298    0:20   55.5    80    3.9   212      9.7   930.3    0.00       0    68.3
 298    0:30   55.2    81    3.4   170      8.2   930.4    0.00       0    68.2
 298    0:40   55.6    80    4.1   213      9.1   930.3    0.00       0    68.0
 298    0:50   55.5    80    2.8   211      6.2   930.3    0.00       0    67.9
 298    1:00   55.4    80    3.9   199      9.8   930.3    0.00       0    67.8
 298    1:10   55.7    80    5.8   219     11.2   930.4    0.00       0    67.8
 298    1:20   55.7    80    7.5   234     14.0   930.4    0.00       0    67.7
 298    1:30   55.6    80    5.4   212     10.1   930.4    0.00       0    67.5
 298    1:40   55.5    80    3.6   199      6.8   930.2    0.00       0    67.4
 298    1:50   55.2    80    5.2   161      8.9   930.1    0.00       0    67.3
 298    2:00   55.4    79    3.8   178      6.6   930.0    0.00       0    67.2
 298    2:10   55.6    79    5.2   182      8.2   929.9    0.00       0    67.2
 298    2:20   55.6    78    3.7   176      7.0   929.8    0.00       0    67.1
 298    2:30   55.9    78    4.9   163     10.4   929.7    0.00       0    67.0
 298    2:40   55.9    77    4.6   162      8.8   929.7    0.00       0    66.9
 298    2:50   56.1    77    5.1   181      9.3   929.7    0.00       0    66.9
 298    3:00   56.1    77    4.3   192      7.9   929.7    0.00       0    66.9
 298    3:10   56.1    78    4.2   190      8.8   929.6    0.00       0    66.8
 298    3:20   56.0    79    4.6   182      8.9   929.5    0.00       0    66.8
 298    3:30   56.0    79    4.1   228      7.4   929.6    0.00       0    66.7
 298    3:40   55.9    80    5.1   204      8.2   929.7    0.00       0    66.7
 298    3:50   55.5    82    4.9   169      7.7   929.6    0.00       0    66.6
 298    4:00   55.4    82    5.9   169     11.5   929.6    0.00       0    66.5
 298    4:10   55.5    83    6.9   183     11.9   929.6    0.00       0    66.4
 298    4:20   55.1    85    8.7   166     12.7   929.5    0.00       0    66.2
 298    4:30   55.2    85    7.4   167     11.2   929.5    0.00       0    66.1
 298    4:40   55.3    85    5.4   184     11.2   929.7    0.00       0    66.1
 298    4:50   55.1    86    6.7   210     11.8   930.0    0.00       0    66.2
 298    5:00   54.8    89    4.8   189      9.4   930.1    0.00       0    66.1
 298    5:10   54.3    91    6.3   188     11.5   930.0    0.00       0    66.1
 298    5:20   53.9    93    6.3   167     11.5   930.0    0.00       0    66.0
 298    5:30   53.7    94    9.4   144     12.9   929.8    0.00       0    65.5
 298    5:40   53.7    94    9.9   146     14.7   929.9    0.00       0    65.2
 298    5:50   53.7    95    8.8   157     14.5   930.0    0.00       0    65.2
 298    6:00   53.7    95    8.8   159     14.1   930.1    0.00       0    65.3
 298    6:10   53.6    95    9.7   156     14.7   930.2    0.00       0    65.0
 298    6:20   53.6    96    7.5   154     14.6   930.2    0.00       0    65.1
 298    6:30   53.6    96   11.2   152     15.3   930.2    0.00       1    64.8
 298    6:40   53.6    96   11.7   151     16.8   930.2    0.00       3    64.5

Return to Highlands Peak graphs page.


Western Regional Climate Center,wrcc@dri.edu